Time;durP1;ratioP1;P1;durP2;ratioP2;P2;SDS_P1;SDS_P2;PMS_P1;PMS_P2;Temp;Humidity;BMP_temperature;BMP_pressure;BME280_temperature;BME280_humidity;BME280_pressure;Samples;Min_cycle;Max_cycle;Signal;HPM_P1;HPM_P2
2022/04/10 00:00:17;;;;;;;4.88;2.80;;;;;;;6.42;52.01;101760.94;4933087;28;114740;-67
2022/04/10 00:02:44;;;;;;;6.93;2.95;;;;;;;6.40;51.79;101760.09;4937633;28;123518;-68
2022/04/10 00:05:12;;;;;;;6.50;2.72;;;;;;;6.39;52.12;101755.69;4937945;28;123746;-67
2022/04/10 00:07:39;;;;;;;5.85;2.65;;;;;;;6.37;51.91;101768.00;4932877;28;114804;-67
2022/04/10 00:10:07;;;;;;;7.93;2.80;;;;;;;6.37;51.81;101761.88;4935999;28;113773;-68
2022/04/10 00:12:35;;;;;;;7.50;2.83;;;;;;;6.34;51.83;101768.03;4939498;28;124567;-68
2022/04/10 00:15:03;;;;;;;6.13;2.55;;;;;;;6.32;51.96;101759.28;4938054;28;123991;-67
2022/04/10 00:17:31;;;;;;;8.27;3.10;;;;;;;6.31;51.75;101760.19;4932712;28;114249;-67
2022/04/10 00:19:58;;;;;;;6.28;2.88;;;;;;;6.29;52.17;101758.47;4938263;28;114523;-67
2022/04/10 00:22:25;;;;;;;9.55;2.92;;;;;;;6.29;52.04;101763.72;4935459;28;123845;-67
2022/04/10 00:24:52;;;;;;;7.22;2.67;;;;;;;6.28;51.90;101768.13;4935436;28;123855;-68
2022/04/10 00:27:19;;;;;;;7.97;2.75;;;;;;;6.27;51.98;101766.38;4935924;28;114162;-68
2022/04/10 00:29:47;;;;;;;6.20;2.70;;;;;;;6.27;52.22;101769.00;4936188;28;113502;-67
2022/04/10 00:32:25;;;;;;;8.10;2.92;;;;;;;6.26;52.10;101764.63;4934763;28;124619;-67
2022/04/10 00:34:53;;;;;;;7.80;2.90;;;;;;;6.26;52.13;101759.38;4935490;28;124159;-67
2022/04/10 00:37:20;;;;;;;6.10;3.40;;;;;;;6.25;52.08;101768.16;4935439;28;114353;-67
2022/04/10 00:39:47;;;;;;;7.10;2.88;;;;;;;6.23;51.94;101759.41;4929357;28;114738;-67
2022/04/10 00:42:15;;;;;;;7.63;3.40;;;;;;;6.21;52.19;101755.94;4957562;28;123140;-68
2022/04/10 00:44:42;;;;;;;4.85;3.03;;;;;;;6.20;52.09;101759.47;4952309;28;122966;-68
2022/04/10 00:47:12;;;;;;;12.52;2.88;;;;;;;6.18;52.26;101761.25;4928950;28;115030;-68
2022/04/10 00:49:39;;;;;;;8.32;2.92;;;;;;;6.16;51.94;101757.72;4933178;28;115027;-67
2022/04/10 00:52:07;;;;;;;6.38;3.42;;;;;;;6.14;52.17;101754.25;4957917;28;122903;-67
2022/04/10 00:54:35;;;;;;;8.23;3.45;;;;;;;6.12;52.16;101750.78;4934832;28;124212;-67
2022/04/10 00:57:02;;;;;;;8.00;3.10;;;;;;;6.12;52.20;101753.41;4934470;28;114581;-67
2022/04/10 00:59:30;;;;;;;8.43;2.72;;;;;;;6.09;51.91;101750.84;4933973;28;113912;-68
2022/04/10 01:01:57;;;;;;;7.88;2.70;;;;;;;6.08;52.01;101754.34;4937215;28;124207;-67
2022/04/10 01:04:41;;;;;;;8.20;2.78;;;;;;;6.07;52.29;101752.63;4956118;28;123292;-68
2022/04/10 01:07:13;;;;;;;7.70;3.17;;;;;;;6.05;52.05;101760.50;4933772;28;113170;-67
2022/04/10 01:09:44;;;;;;;5.18;3.15;;;;;;;6.04;52.24;101749.09;4948900;28;113333;-68
2022/04/10 01:12:12;;;;;;;10.18;3.40;;;;;;;6.04;52.46;101753.50;4930686;28;124189;-67
2022/04/10 01:14:42;;;;;;;7.68;3.10;;;;;;;6.03;52.18;101751.78;4933591;28;122965;-68
2022/04/10 01:17:14;;;;;;;7.20;2.80;;;;;;;6.04;52.34;101754.34;4949863;28;113561;-67
2022/04/10 01:19:42;;;;;;;7.65;3.03;;;;;;;6.03;52.23;101750.00;4951916;28;114378;-68
2022/04/10 01:22:32;;;;;;;4.82;2.83;;;;;;;6.02;52.29;101750.88;4934945;28;123675;-68
2022/04/10 01:25:06;;;;;;;9.68;2.72;;;;;;;5.99;52.40;101750.94;4948813;28;122945;-67
2022/04/10 01:27:40;;;;;;;7.18;3.22;;;;;;;5.96;52.26;101750.97;4934346;28;113423;-68
2022/04/10 01:30:11;;;;;;;8.43;3.05;;;;;;;5.96;52.22;101756.22;4936558;28;114133;-67
2022/04/10 01:32:41;;;;;;;6.70;3.17;;;;;;;5.93;52.20;101761.47;4951617;28;123027;-67
2022/04/10 01:35:09;;;;;;;6.18;3.17;;;;;;;5.91;52.20;101757.97;4933183;28;123955;-68
2022/04/10 01:37:37;;;;;;;7.78;3.22;;;;;;;5.88;52.27;101757.16;4950479;28;114541;-68
2022/04/10 01:40:07;;;;;;;14.27;3.45;;;;;;;5.86;52.31;101754.56;4935164;28;114748;-68
2022/04/10 01:42:35;;;;;;;7.43;3.15;;;;;;;5.84;52.37;101753.69;4928444;28;124357;-68
2022/04/10 01:45:02;;;;;;;9.05;3.38;;;;;;;5.82;52.30;101753.72;4945563;28;123272;-68
2022/04/10 01:47:30;;;;;;;7.35;3.38;;;;;;;5.83;52.59;101759.84;4931181;28;113459;-67
2022/04/10 01:49:58;;;;;;;8.02;3.30;;;;;;;5.81;52.63;101756.34;4955735;28;113494;-67
2022/04/10 01:52:25;;;;;;;6.10;3.40;;;;;;;5.81;52.59;101756.34;4952340;28;124049;-68
2022/04/10 01:54:53;;;;;;;5.72;3.20;;;;;;;5.81;52.51;101766.88;4955342;28;123526;-68
2022/04/10 01:57:20;;;;;;;7.07;3.08;;;;;;;5.80;52.52;101770.38;4931337;28;113461;-67
2022/04/10 01:59:48;;;;;;;8.18;3.13;;;;;;;5.78;52.44;101772.16;4951960;28;114387;-67
2022/04/10 02:02:15;;;;;;;8.38;3.40;;;;;;;5.78;52.64;101777.41;4954451;28;123302;-68
2022/04/10 02:04:42;;;;;;;5.55;3.33;;;;;;;5.78;52.61;101777.41;4954229;28;122945;-67
2022/04/10 02:07:10;;;;;;;5.25;3.08;;;;;;;5.78;52.54;101772.16;4933772;28;114329;-67
2022/04/10 02:09:37;;;;;;;9.27;3.10;;;;;;;5.80;52.62;101780.88;4940698;28;114407;-67
2022/04/10 02:12:05;;;;;;;8.90;3.17;;;;;;;5.79;52.68;101773.91;4948857;28;124054;-67
2022/04/10 02:14:33;;;;;;;6.97;3.13;;;;;;;5.78;52.59;101777.41;4957333;28;123176;-67
2022/04/10 02:17:02;;;;;;;7.88;3.17;;;;;;;5.78;52.48;101780.03;4954470;28;113520;-68
2022/04/10 02:19:29;;;;;;;8.95;2.95;;;;;;;5.77;52.67;101781.78;4957185;28;114104;-68
2022/04/10 02:21:59;;;;;;;7.28;3.13;;;;;;;5.77;52.83;101780.94;4951345;28;123607;-67
2022/04/10 02:24:26;;;;;;;7.38;3.60;;;;;;;5.76;52.58;101785.28;4959833;28;122441;-67
2022/04/10 02:26:54;;;;;;;10.57;3.25;;;;;;;5.74;52.87;101781.81;4936756;28;115122;-67
2022/04/10 02:29:21;;;;;;;7.43;2.65;;;;;;;5.74;52.76;101786.22;4957252;28;114994;-67
2022/04/10 02:31:50;;;;;;;12.05;3.13;;;;;;;5.73;52.89;101789.75;4959148;28;123490;-67
2022/04/10 02:34:17;;;;;;;10.10;3.47;;;;;;;5.70;52.65;101789.75;4951262;28;123279;-67
2022/04/10 02:36:45;;;;;;;9.02;3.40;;;;;;;5.69;52.98;101788.00;4952831;28;114201;-67
2022/04/10 02:39:12;;;;;;;8.70;3.25;;;;;;;5.68;52.69;101786.28;4958287;28;113149;-66
2022/04/10 02:41:39;;;;;;;11.00;3.65;;;;;;;5.70;52.80;101795.00;4953844;28;123718;-67
2022/04/10 02:44:08;;;;;;;8.65;3.35;;;;;;;5.68;52.87;101789.78;4943920;28;123275;-68
2022/04/10 02:46:35;;;;;;;5.10;3.22;;;;;;;5.66;52.82;101787.16;4952471;28;113403;-68
2022/04/10 02:49:02;;;;;;;7.35;3.38;;;;;;;5.68;52.96;101802.03;4954203;28;112789;-68
2022/04/10 02:51:29;;;;;;;8.35;2.75;;;;;;;5.66;53.01;101800.28;4954295;28;123601;-68
2022/04/10 02:53:57;;;;;;;6.22;2.80;;;;;;;5.66;53.28;101797.66;4954236;28;123071;-67
2022/04/10 02:56:25;;;;;;;8.63;3.10;;;;;;;5.66;53.02;101802.91;4935785;28;113305;-67
2022/04/10 02:58:52;;;;;;;8.43;3.22;;;;;;;5.64;52.95;101799.44;4932492;28;114135;-67
2022/04/10 03:01:19;;;;;;;6.72;3.13;;;;;;;5.64;53.00;101807.31;4935854;28;125959;-67
2022/04/10 03:03:47;;;;;;;6.78;3.40;;;;;;;5.64;53.04;101802.06;4953522;28;122576;-67
2022/04/10 03:06:14;;;;;;;8.43;3.30;;;;;;;5.64;52.96;101812.56;4948697;28;113220;-67
2022/04/10 03:08:41;;;;;;;6.93;3.28;;;;;;;5.64;52.85;101812.56;4956429;28;113493;-67
2022/04/10 03:11:08;;;;;;;6.03;3.40;;;;;;;5.64;53.12;101802.06;4950244;28;122926;-67
2022/04/10 03:13:36;;;;;;;7.57;3.17;;;;;;;5.64;53.02;101807.31;4952356;28;122911;-68
2022/04/10 03:16:06;;;;;;;9.15;3.40;;;;;;;5.64;53.16;101817.84;4953553;28;114502;-68
2022/04/10 03:18:34;;;;;;;6.72;3.22;;;;;;;5.63;53.09;101816.09;4950658;28;114029;-68
2022/04/10 03:21:03;;;;;;;8.70;3.53;;;;;;;5.63;52.97;101809.97;4956947;28;123660;-68
2022/04/10 03:23:30;;;;;;;12.18;3.60;;;;;;;5.63;53.24;101804.69;4958634;28;122760;-68
2022/04/10 03:25:57;;;;;;;11.30;3.60;;;;;;;5.63;52.93;101809.97;4954163;28;113452;-67
2022/04/10 03:28:24;;;;;;;7.72;3.33;;;;;;;5.62;53.23;101819.59;4953986;28;113383;-67
2022/04/10 03:30:52;;;;;;;7.50;3.65;;;;;;;5.62;52.98;101816.97;4956928;28;123591;-69
2022/04/10 03:33:20;;;;;;;6.53;3.35;;;;;;;5.62;52.82;101822.22;4957043;28;123136;-67
2022/04/10 03:35:47;;;;;;;8.15;3.47;;;;;;;5.62;53.02;101822.22;4956488;28;115028;-68
2022/04/10 03:38:15;;;;;;;9.98;3.30;;;;;;;5.59;53.10;101819.63;4953818;28;113230;-67
2022/04/10 03:40:43;;;;;;;8.80;3.22;;;;;;;5.58;53.13;101811.78;4954677;28;123355;-68
2022/04/10 03:43:11;;;;;;;9.23;4.07;;;;;;;5.56;53.06;101811.78;4943076;28;125592;-68
2022/04/10 03:45:39;;;;;;;8.25;3.40;;;;;;;5.54;53.12;101810.94;4940274;28;113136;-67
2022/04/10 03:48:06;;;;;;;10.73;3.22;;;;;;;5.54;53.14;101810.94;4932810;28;114562;-68
2022/04/10 03:50:35;;;;;;;7.32;3.40;;;;;;;5.53;53.25;101814.44;4937841;28;123166;-67
2022/04/10 03:53:04;;;;;;;7.93;3.63;;;;;;;5.53;53.23;101821.44;4952673;28;123796;-68
2022/04/10 03:55:32;;;;;;;10.43;3.88;;;;;;;5.51;53.24;101816.19;4954908;28;113286;-68
2022/04/10 03:58:02;;;;;;;7.35;3.55;;;;;;;5.51;52.97;101821.44;4935652;28;113364;-67
2022/04/10 04:00:29;;;;;;;7.32;3.60;;;;;;;5.50;53.37;101827.59;4935310;28;125419;-68
2022/04/10 04:03:02;;;;;;;10.15;4.07;;;;;;;5.50;53.18;101822.34;4950669;28;123635;-68
2022/04/10 04:05:33;;;;;;;8.77;3.85;;;;;;;5.49;53.32;101820.59;4949056;28;114620;-67
2022/04/10 04:08:01;;;;;;;8.65;3.70;;;;;;;5.50;53.00;101832.88;4948715;28;114555;-67
2022/04/10 04:10:32;;;;;;;7.65;3.78;;;;;;;5.48;53.22;101826.72;4947932;28;122894;-68
2022/04/10 04:13:01;;;;;;;7.53;3.92;;;;;;;5.46;53.26;101825.88;4948201;28;123297;-67
2022/04/10 04:15:29;;;;;;;8.63;3.67;;;;;;;5.45;53.27;101826.75;4950441;28;114145;-67
2022/04/10 04:17:58;;;;;;;11.43;4.35;;;;;;;5.45;53.43;101832.03;4948604;28;113098;-68
2022/04/10 04:20:25;;;;;;;10.35;4.45;;;;;;;5.45;53.33;101832.03;4935797;28;124477;-67
2022/04/10 04:22:54;;;;;;;6.82;4.22;;;;;;;5.45;53.38;101832.88;4932065;28;124134;-68
2022/04/10 04:25:21;;;;;;;12.15;4.50;;;;;;;5.45;53.65;101842.53;4937484;28;114233;-68
2022/04/10 04:27:51;;;;;;;8.90;4.43;;;;;;;5.46;53.37;101839.00;4953196;28;114137;-67
2022/04/10 04:30:18;;;;;;;9.27;4.40;;;;;;;5.46;53.37;101842.53;4955947;28;123193;-68
2022/04/10 04:32:48;;;;;;;9.75;4.78;;;;;;;5.48;53.73;101837.22;4951981;28;123721;-67
2022/04/10 04:35:15;;;;;;;11.38;4.65;;;;;;;5.47;53.82;101840.75;4931469;28;114605;-68
2022/04/10 04:37:43;;;;;;;10.32;4.75;;;;;;;5.49;53.61;101849.50;4934348;28;114485;-67
2022/04/10 04:40:16;;;;;;;10.57;5.03;;;;;;;5.50;53.75;101851.25;4946574;28;123588;-67
2022/04/10 04:42:44;;;;;;;9.70;4.80;;;;;;;5.51;53.64;101852.97;4948867;28;123649;-68
2022/04/10 04:45:14;;;;;;;7.75;4.65;;;;;;;5.53;53.78;101856.47;4961587;28;113128;-67
2022/04/10 04:47:58;;;;;;;11.32;5.22;;;;;;;5.54;53.90;101858.22;4951361;28;113557;-67
2022/04/10 04:50:26;;;;;;;11.63;5.30;;;;;;;5.55;53.67;101853.84;4934649;28;123252;-67
2022/04/10 04:52:54;;;;;;;11.90;5.25;;;;;;;5.56;53.85;101856.47;4948509;28;123549;-68
2022/04/10 04:55:22;;;;;;;8.48;5.03;;;;;;;5.57;53.75;101857.31;4947527;28;114400;-67
2022/04/10 04:57:49;;;;;;;9.73;5.45;;;;;;;5.58;53.98;101854.69;4947907;28;114275;-67
2022/04/10 05:00:17;;;;;;;9.93;5.28;;;;;;;5.59;53.88;101861.66;4929051;28;124487;-68
2022/04/10 05:02:55;;;;;;;10.68;5.32;;;;;;;5.61;54.05;101865.19;4930693;28;123289;-67
2022/04/10 05:05:25;;;;;;;12.98;5.65;;;;;;;5.62;54.01;101861.66;4931419;28;113324;-67
2022/04/10 05:07:53;;;;;;;11.88;5.38;;;;;;;5.64;54.01;101859.88;4947923;28;112989;-67
2022/04/10 05:10:21;;;;;;;11.45;5.05;;;;;;;5.66;53.85;101863.38;4930334;28;123680;-68
2022/04/10 05:12:51;;;;;;;11.13;5.15;;;;;;;5.68;53.96;101865.13;4946748;28;123006;-68
2022/04/10 05:15:23;;;;;;;10.43;5.50;;;;;;;5.70;54.08;101873.88;4947103;28;113261;-67
2022/04/10 05:17:51;;;;;;;10.13;5.68;;;;;;;5.72;54.11;101879.97;4949758;28;113129;-67
2022/04/10 05:20:19;;;;;;;8.57;4.80;;;;;;;5.75;54.13;101877.34;4948382;28;123215;-67
2022/04/10 05:22:57;;;;;;;11.30;5.20;;;;;;;5.76;53.99;101871.19;4951617;28;125985;-68
2022/04/10 05:25:26;;;;;;;9.52;5.07;;;;;;;5.80;54.09;101880.78;4952769;28;113458;-68
2022/04/10 05:27:54;;;;;;;10.73;5.10;;;;;;;5.83;54.14;101883.38;4937340;28;113082;-67
2022/04/10 05:30:22;;;;;;;14.75;5.68;;;;;;;5.85;54.24;101879.00;4930940;28;124767;-67
2022/04/10 05:32:51;;;;;;;9.35;5.05;;;;;;;5.88;54.18;101883.34;4950223;28;123531;-67
2022/04/10 05:35:19;;;;;;;9.98;5.40;;;;;;;5.90;53.91;101890.34;4957933;28;113520;-67
2022/04/10 05:37:46;;;;;;;10.80;5.00;;;;;;;5.92;54.14;101896.47;4944717;28;113795;-67
2022/04/10 05:40:16;;;;;;;12.18;5.63;;;;;;;5.94;54.38;101899.94;4959297;28;123684;-68
2022/04/10 05:42:45;;;;;;;9.32;4.68;;;;;;;5.98;54.17;101892.94;4957668;28;123439;-67
2022/04/10 05:45:14;;;;;;;10.50;5.95;;;;;;;6.01;54.26;101901.66;4947430;28;114513;-67
2022/04/10 05:47:46;;;;;;;8.52;5.20;;;;;;;6.04;54.13;101906.88;4960209;28;114050;-68
2022/04/10 05:50:16;;;;;;;12.38;5.65;;;;;;;6.08;54.12;101906.88;4956244;28;123159;-68
2022/04/10 05:52:45;;;;;;;10.05;5.60;;;;;;;6.12;54.41;101913.84;4939626;28;122856;-67
2022/04/10 05:55:15;;;;;;;13.07;5.40;;;;;;;6.14;54.39;101914.69;4958185;28;114007;-68
2022/04/10 05:57:46;;;;;;;9.77;5.65;;;;;;;6.18;54.19;101924.31;4938313;28;114139;-68
2022/04/10 06:00:23;;;;;;;11.52;5.20;;;;;;;6.22;54.43;101926.03;4951002;28;122949;-67
2022/04/10 06:03:03;;;;;;;8.50;5.18;;;;;;;6.28;54.58;101941.75;4955987;28;122948;-67
2022/04/10 06:05:32;;;;;;;11.65;5.40;;;;;;;6.33;54.47;101939.06;4946903;28;113484;-67
2022/04/10 06:08:07;;;;;;;9.90;5.28;;;;;;;6.38;54.39;101940.75;4948262;28;116598;-67
2022/04/10 06:10:36;;;;;;;13.38;5.65;;;;;;;6.46;54.51;101939.81;4949217;28;123722;-67
2022/04/10 06:13:11;;;;;;;13.35;5.68;;;;;;;6.50;54.54;101936.25;4936463;28;123034;-67
2022/04/10 06:16:00;;;;;;;11.75;5.55;;;;;;;6.58;54.53;101934.44;4954158;28;113649;-67
2022/04/10 06:18:27;;;;;;;11.68;5.95;;;;;;;6.65;54.46;101937.84;4953970;28;113176;-67
2022/04/10 06:20:57;;;;;;;8.15;4.88;;;;;;;6.72;54.57;101945.66;4948321;28;123054;-67
2022/04/10 06:23:25;;;;;;;11.75;5.18;;;;;;;6.80;54.65;101951.75;4949644;28;124059;-67
2022/04/10 06:25:59;;;;;;;9.13;4.70;;;;;;;6.91;54.61;101945.47;4950190;28;113463;-68
2022/04/10 06:28:27;;;;;;;9.23;4.60;;;;;;;7.00;54.96;101940.94;4949982;28;113168;-67
2022/04/10 06:30:54;;;;;;;9.63;4.55;;;;;;;7.12;55.00;101941.69;4931337;28;124182;-67
2022/04/10 06:33:26;;;;;;;10.25;4.78;;;;;;;7.24;54.78;101951.22;4949443;28;122984;-67
2022/04/10 06:35:57;;;;;;;10.95;4.20;;;;;;;7.36;54.80;101953.66;4949419;28;114462;-67
2022/04/10 06:38:24;;;;;;;8.90;4.45;;;;;;;7.49;55.09;101947.31;4949806;28;114242;-67
2022/04/10 06:41:01;;;;;;;9.23;4.47;;;;;;;7.64;54.61;101955.91;4951423;28;126658;-67
2022/04/10 06:43:29;;;;;;;10.80;4.50;;;;;;;7.78;54.77;101960.09;4948400;28;123229;-67
2022/04/10 06:45:59;;;;;;;10.32;4.63;;;;;;;7.93;54.71;101969.53;4934691;28;114561;-67
2022/04/10 06:48:33;;;;;;;9.50;4.10;;;;;;;8.08;54.56;101967.50;4949412;28;115046;-67
2022/04/10 06:51:03;;;;;;;7.97;4.00;;;;;;;8.21;54.91;101963.78;4947809;28;123354;-67
2022/04/10 06:53:30;;;;;;;7.80;4.07;;;;;;;8.37;54.92;101961.75;4949631;28;123436;-67
2022/04/10 06:55:59;;;;;;;9.45;3.88;;;;;;;8.55;54.96;101963.19;4948673;28;113372;-67
2022/04/10 06:58:32;;;;;;;6.63;4.03;;;;;;;8.71;54.84;101964.66;4932499;28;113213;-67
2022/04/10 07:01:00;;;;;;;9.60;3.95;;;;;;;8.91;54.62;101966.03;4948201;28;123568;-67
2022/04/10 07:03:28;;;;;;;7.85;3.83;;;;;;;9.08;54.97;101969.22;4949053;28;122966;-67
2022/04/10 07:05:58;;;;;;;5.95;3.08;;;;;;;9.27;54.86;101974.13;4932822;28;113390;-67
2022/04/10 07:08:32;;;;;;;8.20;3.72;;;;;;;9.46;54.53;101970.16;4949282;28;113514;-67
2022/04/10 07:10:59;;;;;;;6.82;3.50;;;;;;;9.66;54.50;101984.72;4932689;28;123742;-67
2022/04/10 07:13:28;;;;;;;8.77;3.40;;;;;;;9.86;54.53;101969.25;4948627;28;122964;-67
2022/04/10 07:15:57;;;;;;;9.15;3.55;;;;;;;10.05;54.21;101979.38;4949228;28;113148;-67
2022/04/10 07:18:24;;;;;;;8.70;3.13;;;;;;;10.22;54.11;101977.19;4933479;28;113461;-67
2022/04/10 07:20:56;;;;;;;8.73;2.80;;;;;;;10.41;54.10;101982.91;4948335;28;123338;-67
2022/04/10 07:23:42;;;;;;;8.27;2.92;;;;;;;10.56;53.83;101986.94;4932498;28;124002;-67
2022/04/10 07:26:14;;;;;;;5.93;2.63;;;;;;;10.73;53.93;101983.84;4932539;28;114428;-67
2022/04/10 07:28:45;;;;;;;9.13;3.58;;;;;;;10.89;53.71;101984.28;4948699;28;113833;-67
2022/04/10 07:31:12;;;;;;;8.55;3.50;;;;;;;11.03;53.61;101984.75;4931511;28;123792;-67
2022/04/10 07:33:40;;;;;;;6.50;2.75;;;;;;;11.19;53.49;101979.88;4948718;28;124941;-67
2022/04/10 07:36:20;;;;;;;6.63;2.45;;;;;;;11.33;52.92;101990.09;4933164;28;114297;-67
2022/04/10 07:38:48;;;;;;;6.50;2.35;;;;;;;11.43;52.86;101996.88;4932766;28;113303;-67
2022/04/10 07:41:22;;;;;;;3.97;1.90;;;;;;;11.50;52.55;101998.38;4947883;28;124477;-67
2022/04/10 07:43:51;;;;;;;6.72;2.25;;;;;;;11.57;52.41;101992.91;4948726;28;123059;-67
2022/04/10 07:49:12;;;;;;;5.45;2.20;;;;;;;11.75;52.06;102018.88;4948589;28;113126;-67
2022/04/10 07:51:53;;;;;;;4.47;2.20;;;;;;;11.83;52.00;102011.56;4947339;28;126937;-67
2022/04/10 07:54:31;;;;;;;5.85;2.03;;;;;;;11.95;52.07;102010.31;4948190;28;126812;-67
2022/04/10 07:56:59;;;;;;;4.85;1.92;;;;;;;12.04;51.52;102019.78;4948340;28;113998;-67
2022/04/10 07:59:30;;;;;;;4.90;1.88;;;;;;;12.07;51.45;102025.88;4932702;28;113073;-67
2022/04/10 08:01:59;;;;;;;6.60;1.80;;;;;;;12.06;51.01;102039.19;4931091;28;124281;-67
2022/04/10 08:04:31;;;;;;;3.72;1.58;;;;;;;12.05;50.78;102042.75;4948185;28;123310;-67
2022/04/10 08:07:10;;;;;;;5.80;1.98;;;;;;;12.03;50.92;102052.56;4930830;28;114708;-67
2022/04/10 08:09:38;;;;;;;3.22;1.60;;;;;;;12.03;50.65;102057.88;4948491;28;113084;-68
2022/04/10 08:12:06;;;;;;;6.50;1.90;;;;;;;12.01;50.58;102067.66;4932405;28;123991;-66
2022/04/10 08:14:34;;;;;;;4.35;1.30;;;;;;;12.00;50.62;102066.81;4931684;28;122693;-67
2022/04/10 08:17:01;;;;;;;5.60;1.50;;;;;;;11.97;50.51;102066.88;4930230;28;115231;-66
2022/04/10 08:19:28;;;;;;;5.00;1.67;;;;;;;11.96;50.44;102064.28;4948092;28;113564;-67
2022/04/10 08:21:55;;;;;;;4.35;1.33;;;;;;;11.94;50.54;102060.81;4929664;28;123989;-67
2022/04/10 08:24:22;;;;;;;5.93;1.63;;;;;;;11.93;50.49;102061.75;4932902;28;123684;-67
2022/04/10 08:26:49;;;;;;;2.72;1.20;;;;;;;11.90;49.90;102069.78;4933154;28;114504;-67
2022/04/10 08:29:16;;;;;;;3.40;1.20;;;;;;;11.86;49.94;102069.84;4932857;28;114755;-67
2022/04/10 08:31:44;;;;;;;4.75;1.38;;;;;;;11.82;49.82;102068.19;4930322;28;123900;-67
2022/04/10 08:34:11;;;;;;;7.18;1.50;;;;;;;11.75;49.76;102071.09;4932524;28;123750;-67
2022/04/10 08:36:39;;;;;;;3.97;1.00;;;;;;;11.71;49.81;102070.31;4932260;28;113395;-67
2022/04/10 08:39:06;;;;;;;5.70;1.30;;;;;;;11.72;49.98;102077.38;4932399;28;114285;-67
2022/04/10 08:41:37;;;;;;;5.43;1.30;;;;;;;11.78;50.42;102071.88;4928827;28;124135;-67
2022/04/10 08:44:04;;;;;;;2.40;1.10;;;;;;;11.87;50.22;102065.41;4931736;28;124474;-67
2022/04/10 08:46:36;;;;;;;4.82;1.30;;;;;;;11.99;50.50;102070.38;4930243;28;114487;-67
2022/04/10 08:49:03;;;;;;;3.22;1.13;;;;;;;12.14;50.17;102068.16;4928788;28;114043;-67
2022/04/10 08:51:30;;;;;;;4.75;1.30;;;;;;;12.27;50.06;102065.03;4931205;28;124167;-67
2022/04/10 08:54:00;;;;;;;3.55;1.30;;;;;;;12.38;50.04;102071.81;4931698;28;123715;-67
2022/04/10 08:56:27;;;;;;;3.63;1.10;;;;;;;12.47;49.81;102074.16;4930208;28;114750;-67
2022/04/10 08:58:54;;;;;;;5.13;1.10;;;;;;;12.52;49.52;102066.88;4930382;28;113999;-66
2022/04/10 09:01:22;;;;;;;3.17;0.90;;;;;;;12.51;48.95;102073.13;4928942;28;124908;-67
2022/04/10 09:03:49;;;;;;;5.25;1.15;;;;;;;12.48;48.91;102073.22;4931474;28;124073;-67
2022/04/10 09:06:17;;;;;;;3.63;0.80;;;;;;;12.48;48.57;102083.84;4931671;28;115157;-67
2022/04/10 09:08:44;;;;;;;3.70;1.02;;;;;;;12.49;48.53;102085.59;4929940;28;115857;-67
2022/04/10 09:11:12;;;;;;;3.45;1.13;;;;;;;12.49;48.28;102080.28;4943786;28;124643;-67
2022/04/10 09:13:46;;;;;;;3.33;1.13;;;;;;;12.49;48.49;102074.97;4930875;28;125312;-66
2022/04/10 09:16:25;;;;;;;4.45;1.40;;;;;;;12.53;48.47;102081.94;4931415;28;114553;-67
2022/04/10 09:18:54;;;;;;;3.80;1.00;;;;;;;12.57;48.45;102078.25;4944797;28;114638;-67
2022/04/10 09:21:23;;;;;;;5.95;1.33;;;;;;;12.60;48.13;102083.47;4928700;28;124899;-67
2022/04/10 09:24:02;;;;;;;3.80;1.30;;;;;;;12.63;48.55;102083.34;4931314;28;123893;-66
2022/04/10 09:26:46;;;;;;;3.40;1.08;;;;;;;12.72;48.64;102073.34;4929712;28;114112;-67
2022/04/10 09:29:15;;;;;;;4.03;1.10;;;;;;;12.78;48.17;102086.41;4931621;28;114194;-67
2022/04/10 09:31:43;;;;;;;3.72;1.20;;;;;;;12.81;48.34;102086.31;4931006;28;124165;-66
2022/04/10 09:34:14;;;;;;;3.95;1.08;;;;;;;12.87;48.31;102080.78;4931355;28;124509;-66
2022/04/10 09:36:47;;;;;;;3.55;1.23;;;;;;;12.96;48.29;102085.78;4930870;28;114193;-67
2022/04/10 09:39:29;;;;;;;2.55;1.30;;;;;;;13.08;48.49;102083.59;4931305;28;114351;-67
2022/04/10 09:42:09;;;;;;;3.15;1.33;;;;;;;13.20;48.33;102077.81;4930891;28;124122;-67
2022/04/10 09:44:56;;;;;;;4.80;1.33;;;;;;;13.29;48.03;102088.13;4930382;28;123887;-67
2022/04/10 09:47:26;;;;;;;4.40;1.50;;;;;;;13.32;47.92;102076.56;4930960;28;114097;-67
2022/04/10 09:50:05;;;;;;;2.40;1.15;;;;;;;13.30;47.58;102084.59;4929264;28;114108;-66
2022/04/10 09:52:36;;;;;;;5.43;1.40;;;;;;;13.29;47.35;102085.47;4928958;28;124599;-67
2022/04/10 09:55:08;;;;;;;2.97;1.02;;;;;;;13.30;47.33;102078.34;4929086;28;123502;-67
2022/04/10 09:57:35;;;;;;;3.40;1.40;;;;;;;13.29;46.97;102088.13;4930142;28;115205;-66
2022/04/10 10:00:05;;;;;;;4.32;1.20;;;;;;;13.29;47.20;102082.81;4930310;28;114707;-66
2022/04/10 10:02:38;;;;;;;4.57;1.20;;;;;;;13.29;46.93;102077.50;4931884;28;124578;-66
2022/04/10 10:05:07;;;;;;;4.15;1.10;;;;;;;13.35;47.06;102077.28;4931835;28;124227;-66
2022/04/10 10:07:36;;;;;;;2.72;1.10;;;;;;;13.46;47.17;102074.25;4947303;28;112975;-66
2022/04/10 10:10:04;;;;;;;3.05;1.38;;;;;;;13.58;47.30;102073.81;4929708;28;114029;-67
2022/04/10 10:12:33;;;;;;;3.47;1.10;;;;;;;13.75;47.25;102078.47;4932034;28;123917;-66
2022/04/10 10:15:02;;;;;;;2.70;1.23;;;;;;;13.87;47.16;102073.59;4947023;28;122849;-67
2022/04/10 10:17:29;;;;;;;4.63;1.02;;;;;;;13.98;46.91;102076.72;4931757;28;115490;-67
2022/04/10 10:20:00;;;;;;;5.40;1.23;;;;;;;14.09;46.61;102079.81;4933854;28;114283;-67
2022/04/10 10:22:27;;;;;;;4.53;1.40;;;;;;;14.11;45.79;102072.63;4933863;28;123991;-66
2022/04/10 10:25:07;;;;;;;4.63;1.30;;;;;;;14.06;45.83;102069.28;4951212;28;124047;-66
2022/04/10 10:28:06;;;;;;;5.65;1.23;;;;;;;14.06;45.85;102074.59;4946900;28;114131;-67
2022/04/10 10:31:04;;;;;;;4.00;1.00;;;;;;;14.10;46.11;102073.53;4934489;28;114336;-67
2022/04/10 10:33:34;;;;;;;3.78;0.93;;;;;;;14.15;45.76;102079.56;4932809;28;124133;-67
2022/04/10 10:36:01;;;;;;;2.78;0.90;;;;;;;14.14;45.53;102077.81;4949706;28;123943;-67
2022/04/10 10:38:30;;;;;;;1.98;0.93;;;;;;;14.12;45.50;102081.47;4930764;28;114832;-67
2022/04/10 10:41:27;;;;;;;2.97;1.20;;;;;;;14.13;45.56;102070.78;4931749;28;114390;-67
2022/04/10 10:43:56;;;;;;;2.58;0.93;;;;;;;14.23;45.48;102075.72;4933258;28;124206;-66
2022/04/10 10:46:24;;;;;;;1.67;0.88;;;;;;;14.28;45.14;102071.06;4934357;28;124128;-67
2022/04/10 10:49:14;;;;;;;2.33;0.90;;;;;;;14.34;44.99;102063.69;4948306;28;115588;-67
2022/04/10 10:51:44;;;;;;;3.20;1.00;;;;;;;14.43;45.25;102067.78;4934435;28;114858;-67
2022/04/10 10:54:20;;;;;;;3.75;1.00;;;;;;;14.53;44.82;102070.94;4932007;28;124793;-67
2022/04/10 10:56:50;;;;;;;3.55;1.10;;;;;;;14.58;44.71;102067.16;4933362;28;123749;-67
2022/04/10 10:59:29;;;;;;;2.88;0.90;;;;;;;14.67;44.99;102070.38;4950869;28;114055;-67
2022/04/10 11:02:05;;;;;;;2.65;1.02;;;;;;;14.78;44.58;102068.09;4935681;28;114244;-67
2022/04/10 11:04:35;;;;;;;1.55;0.73;;;;;;;14.89;44.33;102070.31;4940202;28;125009;-67
2022/04/10 11:07:24;;;;;;;2.30;0.70;;;;;;;14.95;43.95;102052.22;4935453;28;124891;-68
2022/04/10 11:10:07;;;;;;;3.75;0.90;;;;;;;15.01;43.91;102053.75;4935535;28;114249;-67
2022/04/10 11:12:54;;;;;;;5.40;0.90;;;;;;;15.06;43.45;102061.56;4935016;28;114256;-66
2022/04/10 11:15:23;;;;;;;2.90;0.80;;;;;;;15.08;43.25;102060.56;4935880;28;124445;-67
2022/04/10 11:17:53;;;;;;;1.90;1.00;;;;;;;15.09;43.02;102053.44;4935707;28;124824;-66
2022/04/10 11:20:23;;;;;;;4.30;0.95;;;;;;;15.14;43.22;102046.06;4947987;28;113275;-67
2022/04/10 11:22:57;;;;;;;4.57;1.10;;;;;;;15.22;43.16;102046.63;4948887;28;113069;-66
2022/04/10 11:25:27;;;;;;;3.03;0.77;;;;;;;15.30;42.49;102048.94;4937861;28;124656;-67
2022/04/10 11:28:00;;;;;;;1.70;0.70;;;;;;;15.34;42.38;102056.72;4938832;28;124775;-67
2022/04/10 11:30:32;;;;;;;3.63;0.82;;;;;;;15.38;42.16;102057.44;4934467;28;115105;-67
2022/04/10 11:32:59;;;;;;;3.40;0.90;;;;;;;15.36;42.08;102049.50;4933309;28;114243;-67
2022/04/10 11:35:29;;;;;;;3.33;1.05;;;;;;;15.34;41.73;102051.38;4949395;28;125205;-66
2022/04/10 11:38:02;;;;;;;3.92;1.17;;;;;;;15.32;41.76;102047.91;4930843;28;123945;-66